Saint-Georges-De-Cacouna, Canada
Current Conditions -  °F | °C
As of 12:53 AM on Tuesday 21 Oct 2014 (Local Time) from KFVE Reporting Station
Clear Clear  
Wind Chill: 23°   Ceiling: Unl
Heat Index: 30°   Visibility: 10mi
Dew Point: 23°   Wind: 7mph
Humidity: 75%   Direction: 270°W
Pressure: 29.94"   Gusts: NA
Location:  47.92°N, 69.5°W
Report Text: KFVE 210453Z AUTO 27006KT 10SM CLR M01/M05 A2994 RMK AO2 SLP147 T10111050 400561017
Loading
Personal Weather Stations






























Interactive Weather Map
Tropical Storm Tracking
New forecast layout! Learn more

10-Day Weather Forecast

Advertisements
Track Severe Weather on mobile